Time;durP1;ratioP1;P1;durP2;ratioP2;P2;SDS_P1;SDS_P2;PMS_P1;PMS_P2;Temp;Humidity;BMP_temperature;BMP_pressure;BME280_temperature;BME280_humidity;BME280_pressure;Samples;Min_cycle;Max_cycle;Signal;HPM_P1;HPM_P2
2022/06/06 00:01:44;;;;;;;12.68;2.50;;;;;;;20.83;58.00;98992.81;5094455;28;20028;-49
2022/06/06 00:04:11;;;;;;;8.50;3.03;;;;;;;20.79;58.64;98994.38;5093240;28;20028;-49
2022/06/06 00:06:37;;;;;;;6.90;2.58;;;;;;;20.78;59.03;98994.63;5093380;28;20032;-48
2022/06/06 00:09:03;;;;;;;6.60;2.63;;;;;;;20.86;58.54;98992.28;5094440;28;20020;-49
2022/06/06 00:11:34;;;;;;;12.30;3.15;;;;;;;20.95;58.57;98980.03;5094366;28;20028;-47
2022/06/06 00:14:00;;;;;;;6.13;2.63;;;;;;;21.01;58.27;98978.22;5094375;28;20393;-47
2022/06/06 00:16:26;;;;;;;6.70;2.72;;;;;;;21.03;58.24;98981.41;5092947;28;20516;-47
2022/06/06 00:18:52;;;;;;;6.20;2.72;;;;;;;21.07;57.49;98979.81;5094284;28;20024;-47
2022/06/06 00:21:19;;;;;;;5.00;2.53;;;;;;;21.04;57.29;98976.88;5094057;28;20020;-47
2022/06/06 00:23:44;;;;;;;7.95;2.58;;;;;;;20.92;57.77;98979.75;5094107;28;20020;-47
2022/06/06 00:26:13;;;;;;;7.53;2.83;;;;;;;20.68;58.90;98972.19;5094431;28;20497;-46
2022/06/06 00:28:41;;;;;;;7.85;3.15;;;;;;;20.61;59.70;98968.16;5092777;28;20099;-47
2022/06/06 00:36:37;;;;;;;8.57;3.13;;;;;;;20.58;59.67;98960.63;5093672;28;20070;-47
2022/06/06 00:39:05;;;;;;;8.10;2.63;;;;;;;20.52;59.29;98960.63;5092784;28;20035;-47
2022/06/06 00:41:31;;;;;;;9.75;2.47;;;;;;;20.42;58.77;98965.09;5092380;28;20028;-47
2022/06/06 00:44:15;;;;;;;11.57;2.72;;;;;;;20.46;58.91;98953.63;5092454;28;20020;-47
2022/06/06 00:47:13;;;;;;;5.63;2.63;;;;;;;20.43;58.52;98954.16;5092470;28;20123;-47
2022/06/06 00:49:51;;;;;;;10.77;2.70;;;;;;;20.43;58.82;98956.03;5093957;28;20028;-46
2022/06/06 00:52:22;;;;;;;7.85;2.40;;;;;;;20.42;58.97;98949.88;5093578;28;20032;-46
2022/06/06 00:54:51;;;;;;;9.38;3.05;;;;;;;20.50;58.49;98940.59;5093652;28;20526;-47
2022/06/06 00:57:22;;;;;;;6.78;2.90;;;;;;;20.35;59.72;98946.66;5075600;28;20028;-47
2022/06/06 00:59:49;;;;;;;9.85;3.30;;;;;;;20.22;60.11;98939.94;5092232;28;20027;-46
2022/06/06 01:02:16;;;;;;;10.73;3.70;;;;;;;20.12;60.67;98938.00;5093290;28;20024;-46
2022/06/06 01:04:42;;;;;;;13.05;3.20;;;;;;;20.14;60.65;98941.22;5092048;28;20020;-47
2022/06/06 01:07:10;;;;;;;8.05;2.78;;;;;;;20.07;60.82;98931.81;5093395;28;20024;-47
2022/06/06 01:09:38;;;;;;;8.88;3.42;;;;;;;19.94;60.90;98936.53;5091937;28;20039;-47
2022/06/06 01:12:09;;;;;;;10.05;3.45;;;;;;;19.77;61.18;98935.06;5091859;28;20085;-45
2022/06/06 01:14:44;;;;;;;6.95;2.83;;;;;;;19.66;61.36;98947.44;5091934;28;20043;-47
2022/06/06 01:17:28;;;;;;;5.95;3.08;;;;;;;19.51;62.11;98937.47;5091855;28;20070;-46
2022/06/06 01:20:03;;;;;;;10.32;3.28;;;;;;;19.40;63.03;98941.91;5093079;28;20107;-46
2022/06/06 01:23:00;;;;;;;7.78;2.97;;;;;;;19.43;63.26;98952.03;5091594;28;20473;-46
2022/06/06 01:25:44;;;;;;;5.60;3.08;;;;;;;19.41;62.71;98940.03;5091644;28;20032;-47
2022/06/06 01:28:22;;;;;;;10.40;3.75;;;;;;;19.41;63.28;98938.19;5091717;28;20405;-46
2022/06/06 01:30:54;;;;;;;11.38;4.00;;;;;;;19.52;62.76;98939.88;5091506;28;20024;-47
2022/06/06 01:33:19;;;;;;;17.70;4.18;;;;;;;19.60;62.52;98935.16;5091542;28;20035;-47
2022/06/06 01:35:48;;;;;;;12.60;3.20;;;;;;;19.67;62.39;98935.75;5092816;28;20020;-46
2022/06/06 01:38:17;;;;;;;15.43;4.10;;;;;;;19.72;62.24;98936.63;5092470;28;20075;-46
2022/06/06 01:41:03;;;;;;;11.80;2.95;;;;;;;19.82;62.28;98941.25;5091225;28;20039;-47
2022/06/06 01:43:46;;;;;;;9.43;3.30;;;;;;;19.79;62.11;98931.09;5092928;28;20051;-47
2022/06/06 01:46:18;;;;;;;16.15;3.67;;;;;;;19.83;62.22;98934.84;5092599;28;20039;-47
2022/06/06 01:48:45;;;;;;;15.82;3.92;;;;;;;19.95;61.83;98940.78;5092629;28;20051;-47
2022/06/06 01:51:20;;;;;;;12.60;3.38;;;;;;;19.88;61.16;98937.56;5092524;28;20023;-47
2022/06/06 01:53:46;;;;;;;10.48;3.33;;;;;;;19.84;61.39;98935.63;5092548;28;20111;-47
2022/06/06 01:56:16;;;;;;;11.15;3.95;;;;;;;19.69;61.70;98942.41;5092414;28;20038;-46
2022/06/06 01:58:42;;;;;;;8.93;3.30;;;;;;;19.59;61.68;98934.34;5092407;28;20027;-47
2022/06/06 02:01:07;;;;;;;8.30;3.17;;;;;;;19.45;62.68;98935.81;5074050;28;20024;-47
2022/06/06 02:03:34;;;;;;;6.15;3.40;;;;;;;19.24;62.66;98938.28;5091894;28;20046;-47
2022/06/06 02:06:02;;;;;;;9.23;5.03;;;;;;;19.18;62.86;98931.31;5092220;28;20036;-47
2022/06/06 02:08:29;;;;;;;6.68;3.95;;;;;;;19.25;63.11;98928.44;5090913;28;20077;-46
2022/06/06 02:10:54;;;;;;;7.80;4.03;;;;;;;19.16;63.74;98922.78;5092140;28;20028;-47
2022/06/06 02:13:21;;;;;;;16.67;4.80;;;;;;;19.16;63.77;98925.44;5092228;28;20065;-46
2022/06/06 02:15:46;;;;;;;8.70;4.07;;;;;;;19.14;63.50;98931.00;5073927;28;20122;-47
2022/06/06 02:18:13;;;;;;;11.48;5.30;;;;;;;19.13;63.65;98926.72;5090756;28;20101;-47
2022/06/06 02:20:39;;;;;;;9.68;4.95;;;;;;;19.11;63.43;98931.50;5090619;28;20401;-47
2022/06/06 02:23:06;;;;;;;10.75;4.95;;;;;;;18.99;63.58;98930.81;5092015;28;20027;-47
2022/06/06 02:25:34;;;;;;;10.48;4.22;;;;;;;18.84;63.91;98931.47;5091889;28;20034;-46
2022/06/06 02:28:01;;;;;;;11.00;4.35;;;;;;;18.81;64.44;98923.97;5091943;28;20030;-47
2022/06/06 02:30:31;;;;;;;6.50;4.50;;;;;;;18.80;64.41;98925.03;5092117;28;20162;-47
2022/06/06 02:32:57;;;;;;;8.52;3.47;;;;;;;18.80;64.52;98926.91;5090636;28;20422;-46
2022/06/06 02:35:27;;;;;;;13.35;3.50;;;;;;;18.69;64.68;98925.94;5091899;28;20074;-46
2022/06/06 02:37:56;;;;;;;8.05;4.53;;;;;;;18.53;64.68;98923.09;5091563;28;20063;-47
2022/06/06 02:40:24;;;;;;;9.15;4.00;;;;;;;18.40;65.24;98928.75;5091770;28;20036;-46
2022/06/06 02:42:50;;;;;;;7.38;3.50;;;;;;;18.34;65.06;98927.09;5091787;28;20491;-47
2022/06/06 02:45:17;;;;;;;14.40;3.40;;;;;;;18.29;65.21;98930.47;5091747;28;20099;-48
2022/06/06 02:47:46;;;;;;;10.07;3.67;;;;;;;18.31;65.17;98931.03;5090461;28;20233;-48
2022/06/06 02:50:15;;;;;;;7.53;3.00;;;;;;;18.42;64.87;98931.19;5091676;28;20520;-48
2022/06/06 02:52:43;;;;;;;5.80;3.50;;;;;;;18.56;64.25;98924.44;5090524;28;20024;-49
2022/06/06 02:55:10;;;;;;;9.48;3.17;;;;;;;18.62;64.00;98928.78;5091663;28;20500;-48
2022/06/06 02:57:40;;;;;;;17.27;6.38;;;;;;;18.57;64.44;98934.00;5091703;28;20036;-48
2022/06/06 03:00:07;;;;;;;22.05;6.28;;;;;;;18.46;64.63;98941.06;5091719;28;20028;-48
2022/06/06 03:02:35;;;;;;;9.82;4.50;;;;;;;18.64;65.01;98934.66;5090245;28;20020;-48
2022/06/06 03:05:03;;;;;;;7.22;3.83;;;;;;;18.72;63.70;98944.06;5091655;28;20059;-48
2022/06/06 03:07:40;;;;;;;15.18;5.68;;;;;;;18.57;64.13;98939.34;5091617;28;20024;-48
2022/06/06 03:10:30;;;;;;;20.63;4.88;;;;;;;18.54;64.83;98948.59;5091613;28;20489;-48
2022/06/06 03:13:33;;;;;;;22.33;4.72;;;;;;;18.61;64.67;98950.28;5090308;28;20054;-48
2022/06/06 03:22:50;;;;;;;15.55;4.30;;;;;;;18.69;64.22;98963.16;5095436;28;20039;-48
2022/06/06 03:25:40;;;;;;;10.57;3.20;;;;;;;18.87;63.37;98964.72;5092149;28;20043;-48
2022/06/06 03:28:27;;;;;;;11.85;3.35;;;;;;;19.00;62.98;98969.69;5094025;28;20036;-49
2022/06/06 03:31:04;;;;;;;16.10;3.63;;;;;;;19.19;62.45;98966.69;5095496;28;20028;-48
2022/06/06 03:33:33;;;;;;;19.70;4.30;;;;;;;19.43;61.95;98968.00;5093889;28;20024;-48
2022/06/06 03:36:10;;;;;;;13.00;3.45;;;;;;;19.66;61.14;98966.91;5095083;28;20142;-48
2022/06/06 03:38:49;;;;;;;17.45;3.20;;;;;;;19.82;60.27;98965.22;5095091;28;20032;-48
2022/06/06 03:41:36;;;;;;;19.67;3.80;;;;;;;19.99;59.66;98962.41;5094949;28;20020;-48
2022/06/06 03:44:11;;;;;;;18.60;3.88;;;;;;;20.10;59.23;98956.09;5095066;28;20120;-48
2022/06/06 03:47:09;;;;;;;10.70;3.33;;;;;;;20.20;58.78;98963.34;5094858;28;20031;-48
2022/06/06 03:49:48;;;;;;;41.13;7.38;;;;;;;20.30;58.33;98958.09;5095134;28;20028;-48
2022/06/06 03:52:27;;;;;;;14.85;3.58;;;;;;;20.31;58.03;98958.91;5093665;28;20137;-48
2022/06/06 03:55:17;;;;;;;16.15;3.85;;;;;;;20.20;58.19;98951.88;5094709;28;20024;-48
2022/06/06 03:57:45;;;;;;;9.75;3.45;;;;;;;19.86;58.51;98963.66;5094731;28;20497;-48
2022/06/06 04:00:12;;;;;;;11.23;3.17;;;;;;;19.59;59.28;98971.63;5094548;28;20031;-48
2022/06/06 04:02:40;;;;;;;13.65;3.67;;;;;;;19.40;59.79;98979.19;5094564;28;20020;-48
2022/06/06 04:05:13;;;;;;;43.55;7.43;;;;;;;19.31;60.33;98981.47;5094497;28;20031;-48
2022/06/06 04:07:39;;;;;;;26.33;5.30;;;;;;;19.15;60.42;98983.16;5094594;28;20490;-48
2022/06/06 04:10:06;;;;;;;8.55;3.03;;;;;;;19.10;60.63;98991.09;5094452;28;20371;-48
2022/06/06 04:12:49;;;;;;;9.30;3.17;;;;;;;18.95;60.97;98986.41;5093078;28;20020;-48
2022/06/06 04:15:24;;;;;;;14.48;3.38;;;;;;;18.93;61.19;98985.00;5093035;28;20107;-48
2022/06/06 04:18:27;;;;;;;8.23;3.25;;;;;;;18.86;61.53;98971.91;5093159;28;20517;-48
2022/06/06 04:21:00;;;;;;;31.83;5.13;;;;;;;18.70;62.04;98975.41;5079433;28;20180;-47
2022/06/06 04:23:44;;;;;;;16.23;5.15;;;;;;;18.53;62.53;98978.91;5094240;28;20559;-48
2022/06/06 04:26:15;;;;;;;10.75;3.72;;;;;;;18.40;63.10;98979.25;5093874;28;20647;-48
2022/06/06 04:28:58;;;;;;;6.60;3.20;;;;;;;18.59;63.21;98990.41;5094242;28;20027;-48
2022/06/06 04:31:58;;;;;;;10.05;3.53;;;;;;;19.42;60.93;98986.88;5094042;28;20085;-48
2022/06/06 04:34:47;;;;;;;6.47;2.97;;;;;;;20.14;58.72;98978.50;5092729;28;20020;-49
2022/06/06 04:37:31;;;;;;;42.60;7.60;;;;;;;20.85;56.80;98973.88;5093747;28;20079;-49
2022/06/06 04:40:10;;;;;;;44.00;6.28;;;;;;;21.22;55.76;98973.72;5092667;28;20028;-49
2022/06/06 04:42:48;;;;;;;5.40;2.72;;;;;;;21.43;54.79;98977.28;5092477;28;20508;-48
2022/06/06 04:45:29;;;;;;;7.75;2.85;;;;;;;21.52;54.38;98978.34;5092492;28;20089;-49
2022/06/06 04:47:57;;;;;;;8.70;3.53;;;;;;;21.40;53.95;98976.97;5093829;28;20081;-49
2022/06/06 04:50:23;;;;;;;2.78;2.50;;;;;;;21.30;54.58;98978.53;5093672;28;20112;-49
2022/06/06 04:53:06;;;;;;;21.45;4.45;;;;;;;21.11;55.04;98977.44;5092373;28;20047;-49
2022/06/06 04:55:33;;;;;;;19.38;4.38;;;;;;;20.83;55.40;98976.81;5093576;28;20039;-48
2022/06/06 04:58:02;;;;;;;9.50;3.42;;;;;;;20.37;56.50;98976.53;5092253;28;20020;-48
2022/06/06 05:00:33;;;;;;;5.53;3.30;;;;;;;20.16;57.57;98983.56;5093519;28;20103;-49
2022/06/06 05:02:58;;;;;;;12.32;3.53;;;;;;;20.27;57.35;98984.47;5093424;28;20103;-49
2022/06/06 05:05:34;;;;;;;11.38;3.08;;;;;;;20.40;57.02;98984.00;5092042;28;20126;-49
2022/06/06 05:08:35;;;;;;;9.85;3.10;;;;;;;20.28;57.26;98986.06;5093418;28;20024;-49
2022/06/06 05:11:12;;;;;;;48.75;7.93;;;;;;;20.12;57.99;98985.97;5069501;28;20043;-48
2022/06/06 05:14:08;;;;;;;20.20;6.03;;;;;;;20.42;58.36;98979.22;5093285;28;20101;-48
2022/06/06 05:16:55;;;;;;;13.80;3.38;;;;;;;20.95;56.80;98982.72;5093222;28;20028;-48
2022/06/06 05:19:46;;;;;;;14.98;3.75;;;;;;;22.56;54.65;98989.81;5091799;28;20405;-49
2022/06/06 05:22:34;;;;;;;12.35;3.15;;;;;;;25.03;48.45;98982.41;5091636;28;20051;-48
2022/06/06 05:25:21;;;;;;;10.90;3.00;;;;;;;27.62;44.04;98971.06;5054300;28;20124;-48
2022/06/06 05:28:08;;;;;;;16.23;3.40;;;;;;;29.34;40.42;98964.31;5093040;28;20489;-49
2022/06/06 05:31:00;;;;;;;7.32;2.75;;;;;;;30.56;37.42;98977.63;5092930;28;20024;-49
2022/06/06 05:33:44;;;;;;;7.68;2.60;;;;;;;31.79;35.50;98970.25;5092917;28;20097;-49
2022/06/06 05:36:33;;;;;;;15.27;3.17;;;;;;;32.49;33.41;98972.22;5092799;28;20177;-49
2022/06/06 05:39:21;;;;;;;10.70;2.83;;;;;;;33.15;32.08;98969.25;5092362;28;20123;-48
2022/06/06 05:42:31;;;;;;;7.75;2.40;;;;;;;33.79;31.61;98966.75;5092586;28;20024;-47
2022/06/06 05:45:15;;;;;;;14.07;2.80;;;;;;;34.38;29.70;98965.16;5013511;28;20392;-47
2022/06/06 05:48:00;;;;;;;7.13;2.63;;;;;;;34.95;29.27;98958.31;5030300;28;20107;-47
2022/06/06 05:51:00;;;;;;;5.28;2.50;;;;;;;35.56;28.24;98969.69;5030147;28;20065;-48
2022/06/06 05:53:38;;;;;;;12.32;3.28;;;;;;;36.18;27.13;98965.00;5030157;28;20104;-48
2022/06/06 05:56:51;;;;;;;7.43;2.67;;;;;;;36.55;26.91;98961.66;5013625;28;20068;-47
2022/06/06 05:59:58;;;;;;;16.45;3.53;;;;;;;36.30;26.65;98972.22;4974449;28;20034;-47
2022/06/06 06:02:59;;;;;;;11.80;2.95;;;;;;;36.59;26.26;98964.47;4990462;28;20049;-48
2022/06/06 06:05:34;;;;;;;9.05;2.58;;;;;;;36.81;25.23;98962.84;4972142;28;20038;-47
2022/06/06 06:08:27;;;;;;;7.75;2.70;;;;;;;37.05;24.98;98961.59;4990561;28;20050;-49
2022/06/06 06:11:32;;;;;;;7.28;2.80;;;;;;;37.65;24.98;98951.75;4990482;28;20459;-49
2022/06/06 06:14:10;;;;;;;6.88;2.58;;;;;;;37.69;24.21;98952.59;4972895;28;20129;-48
2022/06/06 06:16:44;;;;;;;6.57;2.50;;;;;;;38.14;23.98;98954.22;4974214;28;20491;-49
2022/06/06 06:19:13;;;;;;;11.10;2.88;;;;;;;38.48;23.08;98958.78;5032400;28;20468;-49
2022/06/06 06:21:44;;;;;;;4.32;2.42;;;;;;;38.73;22.36;98965.22;5069450;28;20021;-49
2022/06/06 06:24:16;;;;;;;8.57;2.70;;;;;;;38.93;21.90;98960.22;5069656;28;20028;-49
2022/06/06 06:26:43;;;;;;;7.13;2.70;;;;;;;39.32;22.12;98964.34;5069647;28;20043;-49
2022/06/06 06:29:10;;;;;;;4.95;2.05;;;;;;;39.53;21.40;98964.44;5069440;28;20403;-49
2022/06/06 06:32:09;;;;;;;8.38;2.65;;;;;;;39.79;21.55;98959.00;5069444;28;20052;-49
2022/06/06 06:35:09;;;;;;;4.35;2.05;;;;;;;39.98;21.19;98966.88;5090684;28;20057;-50
2022/06/06 06:37:58;;;;;;;4.13;2.22;;;;;;;40.15;20.82;98959.84;5091716;28;20052;-49
2022/06/06 06:40:40;;;;;;;8.02;2.42;;;;;;;40.54;20.50;98964.53;5091896;28;20024;-49
2022/06/06 06:43:15;;;;;;;3.42;2.10;;;;;;;41.15;19.63;98958.06;5091786;28;20030;-48
2022/06/06 06:45:48;;;;;;;5.32;2.00;;;;;;;41.66;18.79;98953.94;5091888;28;20036;-48
2022/06/06 06:48:29;;;;;;;4.53;2.08;;;;;;;41.93;18.38;98951.34;5090529;28;20036;-48
2022/06/06 06:51:03;;;;;;;9.60;2.67;;;;;;;42.07;18.02;98967.03;5094767;28;20028;-48
2022/06/06 06:53:52;;;;;;;7.07;2.58;;;;;;;42.07;18.47;98964.28;5094688;28;20032;-48
2022/06/06 06:56:36;;;;;;;6.28;2.20;;;;;;;42.35;18.25;98962.47;5095870;28;20028;-48
2022/06/06 06:59:16;;;;;;;5.75;2.55;;;;;;;42.89;17.87;98957.22;5095864;28;20036;-47
2022/06/06 07:11:04;;;;;;;8.30;2.22;;;;;;;42.88;17.62;98963.91;5095896;28;20090;-50
2022/06/06 07:14:02;;;;;;;9.85;2.50;;;;;;;43.04;17.66;98960.56;5095846;28;20398;-49
2022/06/06 07:16:32;;;;;;;7.32;2.17;;;;;;;42.83;17.67;98956.06;5049887;28;20036;-49
2022/06/06 07:19:06;;;;;;;5.35;2.28;;;;;;;42.68;17.78;98947.94;5095506;28;20107;-48
2022/06/06 07:21:34;;;;;;;6.15;2.45;;;;;;;42.39;17.94;98952.16;5095321;28;20050;-50
2022/06/06 07:24:04;;;;;;;9.52;2.60;;;;;;;42.08;17.67;98952.06;5094036;28;20016;-50
2022/06/06 07:26:32;;;;;;;5.28;2.42;;;;;;;41.61;18.25;98955.13;5095393;28;20020;-48
2022/06/06 07:28:58;;;;;;;5.38;2.53;;;;;;;41.12;18.69;98946.69;5095188;28;20024;-50
2022/06/06 07:31:31;;;;;;;3.80;2.17;;;;;;;40.80;18.98;98951.53;5093878;28;20028;-48
2022/06/06 07:34:19;;;;;;;5.28;2.15;;;;;;;40.70;19.23;98955.84;5095238;28;20058;-48
2022/06/06 07:37:06;;;;;;;4.72;2.30;;;;;;;40.25;19.67;98950.78;5095011;28;20132;-49
2022/06/06 07:40:08;;;;;;;8.45;2.17;;;;;;;39.73;20.34;98950.34;5093753;28;20078;-49
2022/06/06 07:42:58;;;;;;;13.00;2.65;;;;;;;39.84;19.78;98953.88;5032438;28;20075;-48
2022/06/06 07:45:38;;;;;;;4.45;1.90;;;;;;;40.32;19.24;98959.03;5032514;28;20033;-49
2022/06/06 07:48:25;;;;;;;5.95;2.33;;;;;;;40.69;18.76;98951.50;5032542;28;20123;-48
2022/06/06 07:51:18;;;;;;;6.43;2.47;;;;;;;41.08;18.51;98942.38;5032459;28;20029;-48
2022/06/06 07:54:34;;;;;;;5.97;2.70;;;;;;;42.03;18.35;98938.69;5032295;28;20041;-48
2022/06/06 07:57:37;;;;;;;4.15;2.40;;;;;;;42.76;17.82;98940.34;5032331;28;20268;-49
2022/06/06 08:00:10;;;;;;;5.33;2.50;;;;;;;43.27;16.70;98941.34;5032278;28;20490;-49
2022/06/06 08:03:09;;;;;;;7.28;2.40;;;;;;;43.38;17.03;98935.66;5015268;28;20667;-48
2022/06/06 08:05:52;;;;;;;8.35;2.40;;;;;;;43.40;17.12;98933.28;5032102;28;20050;-47
2022/06/06 08:08:31;;;;;;;10.55;3.60;;;;;;;43.56;16.45;98929.09;5015559;28;20057;-48
2022/06/06 08:11:23;;;;;;;4.53;2.65;;;;;;;43.34;17.09;98926.66;5015476;28;20092;-51
2022/06/06 08:14:41;;;;;;;5.13;3.10;;;;;;;43.47;17.03;98916.59;5024536;28;20523;-51
2022/06/06 08:17:35;;;;;;;5.07;2.20;;;;;;;44.03;16.30;98915.31;5013032;28;20052;-51
2022/06/06 08:20:41;;;;;;;8.27;2.58;;;;;;;44.36;16.09;98916.34;5090917;28;20035;-51
2022/06/06 08:23:09;;;;;;;3.45;2.60;;;;;;;44.58;16.17;98916.75;5070446;28;20031;-51
2022/06/06 08:25:37;;;;;;;5.28;2.80;;;;;;;44.18;16.36;98921.44;5094193;28;20400;-50
2022/06/06 08:28:05;;;;;;;8.93;2.58;;;;;;;44.11;16.78;98919.56;5094159;28;20028;-50
2022/06/06 08:30:34;;;;;;;7.78;3.20;;;;;;;44.44;15.87;98920.53;5092859;28;20081;-52
2022/06/06 08:33:00;;;;;;;8.15;2.40;;;;;;;44.56;16.11;98902.56;5094100;28;20405;-50
2022/06/06 08:35:53;;;;;;;7.45;2.65;;;;;;;44.80;15.84;98908.00;5092710;28;20111;-52
2022/06/06 08:38:31;;;;;;;18.00;3.53;;;;;;;45.16;15.49;98896.97;5093041;28;20409;-53
2022/06/06 08:41:29;;;;;;;6.28;2.50;;;;;;;45.95;15.06;98891.56;5093899;28;20028;-53
2022/06/06 08:44:21;;;;;;;7.07;2.20;;;;;;;46.44;14.52;98889.47;5093895;28;20455;-51
2022/06/06 08:47:01;;;;;;;7.35;2.15;;;;;;;46.83;14.14;98893.16;5093787;28;20020;-52
2022/06/06 08:53:26;;;;;;;4.32;2.17;;;;;;;44.62;15.23;98889.00;5031425;28;20084;-52
2022/06/06 08:56:11;;;;;;;3.97;2.13;;;;;;;44.34;15.88;98891.09;5014750;28;20430;-52
2022/06/06 08:58:46;;;;;;;4.85;2.00;;;;;;;44.56;15.63;98882.41;5031287;28;20032;-52
2022/06/06 09:02:06;;;;;;;5.15;2.35;;;;;;;44.72;15.75;98884.44;5031107;28;20072;-51
2022/06/06 09:04:44;;;;;;;3.08;2.20;;;;;;;44.35;15.81;98883.56;4991654;28;20023;-52
2022/06/06 09:07:13;;;;;;;5.40;2.90;;;;;;;44.33;15.30;98883.19;4991644;28;20054;-51
2022/06/06 09:10:06;;;;;;;5.35;1.90;;;;;;;44.42;15.35;98888.97;4991811;28;20552;-52
2022/06/06 09:12:35;;;;;;;7.40;2.47;;;;;;;44.25;15.31;98883.34;4991275;28;20034;-51
2022/06/06 09:15:06;;;;;;;7.07;2.10;;;;;;;44.08;15.01;98876.16;4990922;28;20114;-51
2022/06/06 09:17:50;;;;;;;4.22;2.25;;;;;;;41.47;17.02;98869.78;4991559;28;20026;-50
2022/06/06 09:20:43;;;;;;;8.75;1.73;;;;;;;39.94;18.51;98880.88;4991443;28;20030;-51
2022/06/06 09:23:23;;;;;;;6.72;1.80;;;;;;;40.39;18.68;98889.50;4991496;28;20030;-51
2022/06/06 09:26:01;;;;;;;7.80;2.00;;;;;;;40.69;18.01;98878.00;5006349;28;20036;-51
2022/06/06 09:29:04;;;;;;;4.15;1.80;;;;;;;40.02;18.37;98879.69;5070459;28;20139;-51
2022/06/06 09:31:41;;;;;;;6.07;2.00;;;;;;;38.80;19.82;98884.09;5070446;28;20035;-49
2022/06/06 09:34:24;;;;;;;10.38;2.33;;;;;;;37.80;20.98;98887.75;5053673;28;20067;-48
2022/06/06 09:37:08;;;;;;;9.88;2.67;;;;;;;37.44;21.47;98889.34;5053340;28;20051;-48
2022/06/06 09:39:47;;;;;;;5.22;2.67;;;;;;;38.79;20.47;98883.34;5091499;28;20110;-49
2022/06/06 09:42:37;;;;;;;3.53;2.15;;;;;;;39.89;19.29;98871.06;5092696;28;20024;-48
2022/06/06 09:45:12;;;;;;;5.95;3.03;;;;;;;40.74;18.82;98871.34;5092629;28;20028;-48
2022/06/06 09:48:05;;;;;;;15.30;3.10;;;;;;;41.71;18.19;98866.06;5092646;28;20052;-51
2022/06/06 09:50:42;;;;;;;3.67;2.27;;;;;;;41.65;18.20;98873.19;5092515;28;20058;-51
2022/06/06 09:53:26;;;;;;;6.28;2.53;;;;;;;40.35;18.77;98880.47;5091262;28;20270;-51
2022/06/06 09:59:13;;;;;;;6.03;2.08;;;;;;;38.53;20.44;98887.91;5092721;28;20031;-48
2022/06/06 10:01:48;;;;;;;3.83;2.15;;;;;;;37.96;20.77;98882.78;5091064;28;20034;-48
2022/06/06 10:04:38;;;;;;;4.32;2.00;;;;;;;38.34;20.92;98883.47;5092414;28;20028;-49
2022/06/06 10:07:23;;;;;;;3.65;1.77;;;;;;;39.55;19.90;98879.66;5092285;28;20028;-50
2022/06/06 10:10:01;;;;;;;5.97;2.00;;;;;;;39.94;19.04;98872.63;5092323;28;20386;-50
2022/06/06 10:12:35;;;;;;;4.07;1.85;;;;;;;40.72;18.38;98868.16;5090966;28;20516;-49
2022/06/06 10:15:31;;;;;;;4.95;1.95;;;;;;;40.83;18.29;98868.13;5092193;28;20028;-49
2022/06/06 10:18:10;;;;;;;3.33;1.80;;;;;;;41.59;17.67;98863.00;5092216;28;20043;-52
2022/06/06 10:21:04;;;;;;;3.30;1.73;;;;;;;42.16;16.78;98853.47;5092114;28;20028;-52
2022/06/06 10:24:00;;;;;;;9.80;2.70;;;;;;;42.30;16.64;98858.84;5090823;28;20093;-51
2022/06/06 10:26:49;;;;;;;9.05;3.25;;;;;;;42.79;16.95;98855.94;5090580;28;20128;-51
2022/06/06 10:32:38;;;;;;;5.85;2.92;;;;;;;43.08;16.22;98848.06;5092253;28;20115;-51
2022/06/06 10:35:27;;;;;;;8.85;3.92;;;;;;;42.69;16.42;98844.59;5091982;28;20103;-53
2022/06/06 10:38:02;;;;;;;6.03;2.75;;;;;;;42.22;17.02;98847.13;5091822;28;20043;-53
2022/06/06 10:40:57;;;;;;;2.50;2.20;;;;;;;42.43;16.61;98842.53;5091921;28;20047;-52
2022/06/06 10:44:07;;;;;;;3.30;2.03;;;;;;;41.68;16.83;98838.56;5091920;28;20028;-53
2022/06/06 10:47:10;;;;;;;3.10;1.98;;;;;;;40.76;18.00;98841.44;5091785;28;20031;-53
2022/06/06 10:49:36;;;;;;;5.88;1.90;;;;;;;41.20;17.60;98833.75;5090487;28;20035;-51
2022/06/06 10:52:29;;;;;;;5.72;2.15;;;;;;;41.92;17.22;98826.50;5091691;28;20024;-50
2022/06/06 10:55:25;;;;;;;4.77;1.47;;;;;;;42.44;16.47;98835.84;5090531;28;20032;-51
2022/06/06 10:58:12;;;;;;;3.67;2.15;;;;;;;42.39;16.48;98837.06;5091794;28;20115;-51
2022/06/06 11:00:47;;;;;;;2.63;1.40;;;;;;;41.55;16.71;98831.94;5091691;28;20023;-51
2022/06/06 11:03:50;;;;;;;2.35;1.48;;;;;;;40.42;17.31;98824.66;5090337;28;20024;-50
2022/06/06 11:06:25;;;;;;;5.43;1.90;;;;;;;39.47;18.49;98836.91;5090279;28;20032;-51
2022/06/06 11:09:26;;;;;;;3.80;1.50;;;;;;;38.66;19.05;98835.47;5090316;28;20043;-51
2022/06/06 11:12:07;;;;;;;4.90;1.73;;;;;;;37.56;19.87;98835.06;5091622;28;20032;-49
2022/06/06 11:14:41;;;;;;;5.30;2.00;;;;;;;36.98;20.80;98832.91;5090314;28;20039;-48
2022/06/06 11:17:44;;;;;;;3.08;1.90;;;;;;;36.64;21.36;98826.63;5090207;28;20115;-49
2022/06/06 11:20:40;;;;;;;5.85;2.40;;;;;;;36.89;21.09;98827.72;5091539;28;20093;-48
2022/06/06 11:23:25;;;;;;;3.10;2.10;;;;;;;37.44;20.70;98827.13;5091411;28;20028;-48
2022/06/06 11:26:15;;;;;;;4.18;2.05;;;;;;;37.97;20.30;98832.31;5091473;28;20439;-48
2022/06/06 11:29:11;;;;;;;2.80;1.83;;;;;;;38.64;19.84;98838.59;5091696;28;20111;-48
2022/06/06 11:31:56;;;;;;;3.97;1.70;;;;;;;39.20;18.82;98838.38;5091499;28;20032;-48
2022/06/06 11:34:49;;;;;;;5.10;1.98;;;;;;;39.65;18.26;98828.66;5091513;28;20029;-48
2022/06/06 11:37:47;;;;;;;6.60;1.92;;;;;;;39.70;18.32;98830.22;5092758;28;20048;-48
2022/06/06 11:40:45;;;;;;;4.43;2.10;;;;;;;39.20;18.33;98830.16;5069840;28;20136;-49
2022/06/06 11:43:40;;;;;;;3.55;1.80;;;;;;;39.14;19.04;98833.31;5094948;28;20024;-49
2022/06/06 11:46:28;;;;;;;3.08;1.73;;;;;;;39.53;19.04;98832.59;5094932;28;20523;-48
2022/06/06 11:49:15;;;;;;;3.30;1.60;;;;;;;39.32;18.66;98822.34;5094955;28;20051;-49
2022/06/06 11:52:11;;;;;;;7.38;2.30;;;;;;;39.43;18.50;98827.09;5094942;28;20032;-47
2022/06/06 11:55:08;;;;;;;4.43;2.10;;;;;;;39.95;17.69;98824.75;5095100;28;20028;-48
2022/06/06 11:58:00;;;;;;;2.85;1.67;;;;;;;39.47;17.85;98814.91;5094796;28;20039;-50
2022/06/06 12:00:34;;;;;;;3.70;1.75;;;;;;;38.73;18.75;98819.81;5094719;28;20070;-48
2022/06/06 12:04:01;;;;;;;4.07;1.80;;;;;;;38.26;19.32;98807.06;5094570;28;20024;-48
2022/06/06 12:06:43;;;;;;;5.28;1.80;;;;;;;38.52;19.45;98806.03;5080796;28;20062;-48
2022/06/06 12:09:30;;;;;;;8.43;1.67;;;;;;;39.22;19.08;98797.59;5094576;28;20066;-48
2022/06/06 12:12:08;;;;;;;5.38;1.88;;;;;;;39.58;17.99;98795.69;5094490;28;20020;-47
2022/06/06 12:15:01;;;;;;;2.70;1.52;;;;;;;39.88;18.17;98792.53;5094551;28;20028;-48
2022/06/06 12:17:52;;;;;;;2.37;1.60;;;;;;;39.45;18.55;98789.03;5094497;28;20024;-47
2022/06/06 12:20:26;;;;;;;7.85;1.40;;;;;;;38.75;19.18;98794.75;5094317;28;20024;-48
2022/06/06 12:23:07;;;;;;;2.08;1.30;;;;;;;38.45;19.10;98792.25;5094195;28;20024;-48
2022/06/06 12:25:57;;;;;;;2.55;1.33;;;;;;;38.26;18.68;98780.41;5094278;28;20020;-49
2022/06/06 12:28:37;;;;;;;4.38;1.70;;;;;;;38.07;19.05;98769.72;5094169;28;20032;-48
2022/06/06 12:31:36;;;;;;;1.80;1.20;;;;;;;37.55;19.99;98772.44;5094159;28;20059;-48
2022/06/06 12:34:13;;;;;;;4.43;1.60;;;;;;;37.06;20.62;98766.13;5094007;28;20519;-48
2022/06/06 12:37:13;;;;;;;5.07;1.85;;;;;;;36.87;20.73;98760.88;5093822;28;20125;-48
2022/06/06 12:40:03;;;;;;;2.55;1.83;;;;;;;36.62;20.58;98761.34;5092621;28;20024;-47
2022/06/06 12:42:59;;;;;;;6.80;1.85;;;;;;;36.30;21.07;98763.69;5093793;28;20039;-48
2022/06/06 12:45:36;;;;;;;3.83;1.60;;;;;;;36.22;21.39;98770.22;5092676;28;20046;-48
2022/06/06 12:48:35;;;;;;;4.43;1.42;;;;;;;36.08;21.67;98762.59;5092266;28;20028;-48
2022/06/06 12:51:13;;;;;;;2.42;1.50;;;;;;;35.81;22.43;98759.88;5094041;28;20020;-49
2022/06/06 12:53:47;;;;;;;6.20;1.83;;;;;;;35.74;21.94;98760.56;5093721;28;20031;-50
2022/06/06 12:56:42;;;;;;;3.13;1.42;;;;;;;35.76;21.95;98754.75;5092318;28;20035;-48
2022/06/06 12:59:26;;;;;;;3.95;1.65;;;;;;;35.54;22.24;98751.66;5093629;28;20539;-50
2022/06/06 13:01:58;;;;;;;4.63;1.42;;;;;;;35.19;22.07;98746.38;5092176;28;20100;-49
2022/06/06 13:04:42;;;;;;;3.67;1.55;;;;;;;34.72;22.41;98752.91;5093541;28;20032;-49
2022/06/06 13:07:26;;;;;;;3.03;1.75;;;;;;;34.06;23.67;98743.72;5093376;28;20028;-49